Terminal Aerodrome Forecast
Issued by NWS Wilmington, OH

Current Version | Previous Version | Text Only | Print | Product List | Glossary Off
Versions: 1 2 3 4 5 6 7 8 9 10 11 12 13 14 15 16 17

570
FTUS41 KILN 191735
TAFCMH
TAF
KCMH 191735Z 1918/2018 10004KT P6SM OVC010
     FM191900 12005KT P6SM SCT010 BKN250
     FM200300 11007KT P6SM VCSH OVC100
     FM200500 10006KT 3SM -RA OVC040
     FM200600 11009KT 3SM -RA OVC025
     FM200700 11008KT 3SM -RA BR OVC015
     FM200900 12007KT 2SM -RA BR OVC009
     FM201100 16005KT 2SM BR VCSH OVC005
     FM201400 21006KT 3SM BR OVC003=

USA.gov is the U.S. government's official web portal to all federal, state and local government web resources and services.